sensor_id;sensor_type;location;lat;lon;timestamp;P1;durP1;ratioP1;P2;durP2;ratioP2
49582;SDS011;36329;48.816;44.624;2023-03-01T00:02:04;6.6;;;4.8;;
49582;SDS011;36329;48.816;44.624;2023-03-01T00:05:07;6.5;;;4.4;;
49582;SDS011;36329;48.816;44.624;2023-03-01T00:08:10;9;;;4.6;;
49582;SDS011;36329;48.816;44.624;2023-03-01T00:11:17;7.6;;;4.9;;
49582;SDS011;36329;48.816;44.624;2023-03-01T00:14:21;6.6;;;4.4;;
49582;SDS011;36329;48.816;44.624;2023-03-01T00:17:23;5.5;;;4;;
49582;SDS011;36329;48.816;44.624;2023-03-01T00:20:25;7.2;;;4.8;;
49582;SDS011;36329;48.816;44.624;2023-03-01T00:23:27;7.3;;;4.5;;
49582;SDS011;36329;48.816;44.624;2023-03-01T00:26:30;7;;;4.8;;
49582;SDS011;36329;48.816;44.624;2023-03-01T00:29:32;6.4;;;4.9;;
49582;SDS011;36329;48.816;44.624;2023-03-01T00:32:34;7.6;;;4.9;;
49582;SDS011;36329;48.816;44.624;2023-03-01T00:35:36;8;;;4.4;;
49582;SDS011;36329;48.816;44.624;2023-03-01T00:38:39;6.3;;;4.3;;
49582;SDS011;36329;48.816;44.624;2023-03-01T00:41:42;6.1;;;4.6;;
49582;SDS011;36329;48.816;44.624;2023-03-01T00:44:44;6.2;;;4.1;;
49582;SDS011;36329;48.816;44.624;2023-03-01T00:47:46;7.3;;;4.6;;
49582;SDS011;36329;48.816;44.624;2023-03-01T00:50:49;7.4;;;4.7;;
49582;SDS011;36329;48.816;44.624;2023-03-01T00:53:52;6.2;;;4.3;;
49582;SDS011;36329;48.816;44.624;2023-03-01T00:56:55;6.8;;;4.7;;
49582;SDS011;36329;48.816;44.624;2023-03-01T00:59:57;6.7;;;4.5;;
49582;SDS011;36329;48.816;44.624;2023-03-01T01:02:59;7.7;;;5;;
49582;SDS011;36329;48.816;44.624;2023-03-01T01:06:01;8.1;;;5.6;;
49582;SDS011;36329;48.816;44.624;2023-03-01T01:09:04;10.6;;;6.2;;
49582;SDS011;36329;48.816;44.624;2023-03-01T01:12:07;9.6;;;6.7;;
49582;SDS011;36329;48.816;44.624;2023-03-01T01:15:11;9.3;;;6.1;;
49582;SDS011;36329;48.816;44.624;2023-03-01T01:18:14;8.1;;;6.3;;
49582;SDS011;36329;48.816;44.624;2023-03-01T01:21:16;10.4;;;6.6;;
49582;SDS011;36329;48.816;44.624;2023-03-01T01:24:21;9.2;;;6.6;;
49582;SDS011;36329;48.816;44.624;2023-03-01T01:27:23;8.3;;;6.5;;
49582;SDS011;36329;48.816;44.624;2023-03-01T01:30:25;8.5;;;6.7;;
49582;SDS011;36329;48.816;44.624;2023-03-01T01:33:27;8.8;;;6.5;;
49582;SDS011;36329;48.816;44.624;2023-03-01T01:36:29;10.3;;;6.8;;
49582;SDS011;36329;48.816;44.624;2023-03-01T01:39:31;8.8;;;5.7;;
49582;SDS011;36329;48.816;44.624;2023-03-01T01:42:33;9.3;;;6.4;;
49582;SDS011;36329;48.816;44.624;2023-03-01T01:45:36;7.9;;;5.9;;
49582;SDS011;36329;48.816;44.624;2023-03-01T01:48:39;8.2;;;6.3;;
49582;SDS011;36329;48.816;44.624;2023-03-01T01:51:43;8.9;;;6.6;;
49582;SDS011;36329;48.816;44.624;2023-03-01T01:54:49;7.8;;;6;;
49582;SDS011;36329;48.816;44.624;2023-03-01T01:57:56;7.2;;;5.4;;
49582;SDS011;36329;48.816;44.624;2023-03-01T02:01:04;5.9;;;4.2;;
49582;SDS011;36329;48.816;44.624;2023-03-01T02:04:07;6.9;;;5;;
49582;SDS011;36329;48.816;44.624;2023-03-01T02:07:11;6.3;;;4.6;;
49582;SDS011;36329;48.816;44.624;2023-03-01T02:10:17;7.3;;;4.6;;
49582;SDS011;36329;48.816;44.624;2023-03-01T02:13:19;6.1;;;4.7;;
49582;SDS011;36329;48.816;44.624;2023-03-01T02:16:22;6.3;;;4;;
49582;SDS011;36329;48.816;44.624;2023-03-01T02:19:28;6.5;;;4.8;;
49582;SDS011;36329;48.816;44.624;2023-03-01T02:22:36;6.3;;;4.1;;
49582;SDS011;36329;48.816;44.624;2023-03-01T02:25:41;6.9;;;4.7;;
49582;SDS011;36329;48.816;44.624;2023-03-01T02:28:49;6.7;;;4.3;;
49582;SDS011;36329;48.816;44.624;2023-03-01T02:31:52;6.2;;;4.3;;
49582;SDS011;36329;48.816;44.624;2023-03-01T02:34:55;6.6;;;4.2;;
49582;SDS011;36329;48.816;44.624;2023-03-01T02:37:58;6.6;;;4.6;;
49582;SDS011;36329;48.816;44.624;2023-03-01T02:41:02;6.5;;;4.3;;
49582;SDS011;36329;48.816;44.624;2023-03-01T02:44:07;6.3;;;4.6;;
49582;SDS011;36329;48.816;44.624;2023-03-01T02:47:09;5.9;;;4.1;;
49582;SDS011;36329;48.816;44.624;2023-03-01T02:50:14;5.9;;;4.2;;
49582;SDS011;36329;48.816;44.624;2023-03-01T02:53:27;7.5;;;4;;
49582;SDS011;36329;48.816;44.624;2023-03-01T02:56:35;6.6;;;4.4;;
49582;SDS011;36329;48.816;44.624;2023-03-01T02:59:37;7.1;;;4.7;;
49582;SDS011;36329;48.816;44.624;2023-03-01T03:02:41;7.2;;;4.7;;
49582;SDS011;36329;48.816;44.624;2023-03-01T03:05:43;9;;;5.4;;
49582;SDS011;36329;48.816;44.624;2023-03-01T03:08:45;7.1;;;5.2;;
49582;SDS011;36329;48.816;44.624;2023-03-01T03:11:47;8.3;;;5.9;;
49582;SDS011;36329;48.816;44.624;2023-03-01T03:14:49;9.5;;;5.9;;
49582;SDS011;36329;48.816;44.624;2023-03-01T03:17:51;11.4;;;5.3;;
49582;SDS011;36329;48.816;44.624;2023-03-01T03:20:54;8;;;5.3;;
49582;SDS011;36329;48.816;44.624;2023-03-01T03:23:56;7.1;;;4.8;;
49582;SDS011;36329;48.816;44.624;2023-03-01T03:26:58;6.5;;;4.5;;
49582;SDS011;36329;48.816;44.624;2023-03-01T03:30:00;7.9;;;5.3;;
49582;SDS011;36329;48.816;44.624;2023-03-01T03:33:02;6.8;;;4.8;;
49582;SDS011;36329;48.816;44.624;2023-03-01T03:36:04;7.6;;;5.2;;
49582;SDS011;36329;48.816;44.624;2023-03-01T03:39:06;6.5;;;4.4;;
49582;SDS011;36329;48.816;44.624;2023-03-01T03:42:09;10;;;5.3;;
49582;SDS011;36329;48.816;44.624;2023-03-01T03:45:11;6.6;;;4.6;;
49582;SDS011;36329;48.816;44.624;2023-03-01T03:48:13;7.5;;;4.5;;
49582;SDS011;36329;48.816;44.624;2023-03-01T03:51:16;6.4;;;4.7;;
49582;SDS011;36329;48.816;44.624;2023-03-01T03:54:19;7.8;;;4;;
49582;SDS011;36329;48.816;44.624;2023-03-01T03:57:21;7.8;;;4.7;;
49582;SDS011;36329;48.816;44.624;2023-03-01T04:00:23;7.5;;;4.7;;
49582;SDS011;36329;48.816;44.624;2023-03-01T04:03:26;6.6;;;4.2;;
49582;SDS011;36329;48.816;44.624;2023-03-01T04:06:30;6.7;;;4.7;;
49582;SDS011;36329;48.816;44.624;2023-03-01T04:09:32;6.8;;;4.5;;
49582;SDS011;36329;48.816;44.624;2023-03-01T04:12:44;6.3;;;4.3;;
49582;SDS011;36329;48.816;44.624;2023-03-01T04:15:48;8.8;;;4.5;;
49582;SDS011;36329;48.816;44.624;2023-03-01T04:18:55;7.3;;;4.9;;
49582;SDS011;36329;48.816;44.624;2023-03-01T04:21:58;6.9;;;4.3;;
49582;SDS011;36329;48.816;44.624;2023-03-01T04:25:00;5.4;;;3.8;;
49582;SDS011;36329;48.816;44.624;2023-03-01T04:28:03;6.8;;;4.9;;
49582;SDS011;36329;48.816;44.624;2023-03-01T04:31:12;9.5;;;5;;
49582;SDS011;36329;48.816;44.624;2023-03-01T04:34:16;8;;;5.2;;
49582;SDS011;36329;48.816;44.624;2023-03-01T04:37:18;7.4;;;4.6;;
49582;SDS011;36329;48.816;44.624;2023-03-01T04:40:22;8.7;;;5.6;;
49582;SDS011;36329;48.816;44.624;2023-03-01T04:43:25;9.3;;;5.9;;
49582;SDS011;36329;48.816;44.624;2023-03-01T04:46:27;7.3;;;5;;
49582;SDS011;36329;48.816;44.624;2023-03-01T04:49:30;11.1;;;5.8;;
49582;SDS011;36329;48.816;44.624;2023-03-01T04:52:34;9;;;5.7;;
49582;SDS011;36329;48.816;44.624;2023-03-01T04:55:53;10.4;;;5.5;;
49582;SDS011;36329;48.816;44.624;2023-03-01T04:58:56;7.8;;;5.5;;
49582;SDS011;36329;48.816;44.624;2023-03-01T05:01:58;8.8;;;5.6;;
49582;SDS011;36329;48.816;44.624;2023-03-01T05:05:00;8.6;;;5.4;;
49582;SDS011;36329;48.816;44.624;2023-03-01T05:08:03;10.1;;;5.8;;
49582;SDS011;36329;48.816;44.624;2023-03-01T05:11:08;8.7;;;6.4;;
49582;SDS011;36329;48.816;44.624;2023-03-01T05:14:13;10.6;;;6.7;;
49582;SDS011;36329;48.816;44.624;2023-03-01T05:17:26;10.7;;;6.9;;
49582;SDS011;36329;48.816;44.624;2023-03-01T05:20:41;10;;;6.6;;
49582;SDS011;36329;48.816;44.624;2023-03-01T05:23:55;10;;;6.5;;
49582;SDS011;36329;48.816;44.624;2023-03-01T05:26:57;11.5;;;6.8;;
49582;SDS011;36329;48.816;44.624;2023-03-01T05:30:10;11.9;;;6.6;;
49582;SDS011;36329;48.816;44.624;2023-03-01T05:36:29;10.6;;;6.7;;
49582;SDS011;36329;48.816;44.624;2023-03-01T05:39:38;9.4;;;7.1;;
49582;SDS011;36329;48.816;44.624;2023-03-01T05:42:48;10.1;;;6.6;;
49582;SDS011;36329;48.816;44.624;2023-03-01T05:45:57;11.5;;;5.7;;
49582;SDS011;36329;48.816;44.624;2023-03-01T05:48:59;11.4;;;6.3;;
49582;SDS011;36329;48.816;44.624;2023-03-01T05:52:03;11.3;;;6.1;;
49582;SDS011;36329;48.816;44.624;2023-03-01T05:55:06;11.7;;;6.5;;
49582;SDS011;36329;48.816;44.624;2023-03-01T05:58:15;8.5;;;5.9;;
49582;SDS011;36329;48.816;44.624;2023-03-01T06:01:31;8;;;5.1;;
49582;SDS011;36329;48.816;44.624;2023-03-01T06:04:36;7.6;;;5.3;;
49582;SDS011;36329;48.816;44.624;2023-03-01T06:07:38;11.2;;;5.8;;
49582;SDS011;36329;48.816;44.624;2023-03-01T06:10:46;10.1;;;6.2;;
49582;SDS011;36329;48.816;44.624;2023-03-01T06:14:00;8.9;;;6.3;;
49582;SDS011;36329;48.816;44.624;2023-03-01T06:17:05;13.1;;;6.4;;
49582;SDS011;36329;48.816;44.624;2023-03-01T06:20:18;9.4;;;6;;
49582;SDS011;36329;48.816;44.624;2023-03-01T06:23:23;10.9;;;6.1;;
49582;SDS011;36329;48.816;44.624;2023-03-01T06:26:33;11.3;;;6.6;;
49582;SDS011;36329;48.816;44.624;2023-03-01T06:29:35;9.5;;;6.6;;
49582;SDS011;36329;48.816;44.624;2023-03-01T06:32:49;8;;;5.3;;
49582;SDS011;36329;48.816;44.624;2023-03-01T06:36:01;8.2;;;6;;
49582;SDS011;36329;48.816;44.624;2023-03-01T06:39:23;8.8;;;5.4;;
49582;SDS011;36329;48.816;44.624;2023-03-01T06:42:26;8.1;;;5.6;;
49582;SDS011;36329;48.816;44.624;2023-03-01T06:45:29;9.6;;;5.7;;
49582;SDS011;36329;48.816;44.624;2023-03-01T06:48:31;9;;;5.6;;
49582;SDS011;36329;48.816;44.624;2023-03-01T06:51:39;9.8;;;6.1;;
49582;SDS011;36329;48.816;44.624;2023-03-01T06:54:44;13.7;;;6.2;;
49582;SDS011;36329;48.816;44.624;2023-03-01T06:57:59;8;;;5.8;;
49582;SDS011;36329;48.816;44.624;2023-03-01T07:01:06;9.5;;;5.9;;
49582;SDS011;36329;48.816;44.624;2023-03-01T07:04:10;7.7;;;5.5;;
49582;SDS011;36329;48.816;44.624;2023-03-01T07:07:14;9.5;;;5.6;;
49582;SDS011;36329;48.816;44.624;2023-03-01T07:10:18;9.3;;;5.5;;
49582;SDS011;36329;48.816;44.624;2023-03-01T07:13:38;10.2;;;5.7;;
49582;SDS011;36329;48.816;44.624;2023-03-01T07:16:58;8.8;;;5.9;;
49582;SDS011;36329;48.816;44.624;2023-03-01T07:20:10;9;;;5.3;;
49582;SDS011;36329;48.816;44.624;2023-03-01T07:23:18;9.9;;;6.1;;
49582;SDS011;36329;48.816;44.624;2023-03-01T07:26:20;7.7;;;5.6;;
49582;SDS011;36329;48.816;44.624;2023-03-01T07:29:22;8;;;5.6;;
49582;SDS011;36329;48.816;44.624;2023-03-01T07:32:24;10.3;;;6.1;;
49582;SDS011;36329;48.816;44.624;2023-03-01T07:35:26;9;;;5.6;;
49582;SDS011;36329;48.816;44.624;2023-03-01T07:38:31;8.6;;;5.9;;
49582;SDS011;36329;48.816;44.624;2023-03-01T07:41:34;11;;;6.4;;
49582;SDS011;36329;48.816;44.624;2023-03-01T07:44:35;10;;;6.1;;
49582;SDS011;36329;48.816;44.624;2023-03-01T07:47:38;10.6;;;6.9;;
49582;SDS011;36329;48.816;44.624;2023-03-01T07:50:40;11.5;;;6;;
49582;SDS011;36329;48.816;44.624;2023-03-01T07:53:42;9.5;;;6.2;;
49582;SDS011;36329;48.816;44.624;2023-03-01T07:56:47;8.4;;;6;;
49582;SDS011;36329;48.816;44.624;2023-03-01T07:59:49;10.1;;;6.6;;
49582;SDS011;36329;48.816;44.624;2023-03-01T08:02:51;8.4;;;5.7;;
49582;SDS011;36329;48.816;44.624;2023-03-01T08:05:54;10.6;;;6.7;;
49582;SDS011;36329;48.816;44.624;2023-03-01T08:08:56;9.5;;;6.4;;
49582;SDS011;36329;48.816;44.624;2023-03-01T08:11:58;13.8;;;7.1;;
49582;SDS011;36329;48.816;44.624;2023-03-01T08:15:00;11.7;;;7.2;;
49582;SDS011;36329;48.816;44.624;2023-03-01T08:21:17;13.2;;;6.6;;
49582;SDS011;36329;48.816;44.624;2023-03-01T08:24:20;9.7;;;6.5;;
49582;SDS011;36329;48.816;44.624;2023-03-01T08:27:22;9.9;;;6.5;;
49582;SDS011;36329;48.816;44.624;2023-03-01T08:30:24;10.9;;;5.8;;
49582;SDS011;36329;48.816;44.624;2023-03-01T08:33:26;9.6;;;6.3;;
49582;SDS011;36329;48.816;44.624;2023-03-01T08:36:29;10.6;;;6.4;;
49582;SDS011;36329;48.816;44.624;2023-03-01T08:39:32;8.9;;;5.6;;
49582;SDS011;36329;48.816;44.624;2023-03-01T08:42:34;10.4;;;5.7;;
49582;SDS011;36329;48.816;44.624;2023-03-01T08:45:36;13.8;;;7.3;;
49582;SDS011;36329;48.816;44.624;2023-03-01T08:48:38;17.9;;;10;;
49582;SDS011;36329;48.816;44.624;2023-03-01T08:51:41;9;;;6.1;;
49582;SDS011;36329;48.816;44.624;2023-03-01T08:55:00;11.4;;;5.9;;
49582;SDS011;36329;48.816;44.624;2023-03-01T08:58:12;9.1;;;5.4;;
49582;SDS011;36329;48.816;44.624;2023-03-01T09:01:26;11.6;;;6.1;;
49582;SDS011;36329;48.816;44.624;2023-03-01T09:04:38;8.3;;;5.5;;
49582;SDS011;36329;48.816;44.624;2023-03-01T09:07:46;13.4;;;5.9;;
49582;SDS011;36329;48.816;44.624;2023-03-01T09:11:06;8.3;;;5.6;;
49582;SDS011;36329;48.816;44.624;2023-03-01T09:14:12;7;;;5;;
49582;SDS011;36329;48.816;44.624;2023-03-01T09:20:51;7.4;;;5;;
49582;SDS011;36329;48.816;44.624;2023-03-01T09:23:58;8.4;;;5.4;;
49582;SDS011;36329;48.816;44.624;2023-03-01T09:27:07;7.5;;;5.1;;
49582;SDS011;36329;48.816;44.624;2023-03-01T09:30:13;10.6;;;5.4;;
49582;SDS011;36329;48.816;44.624;2023-03-01T09:33:21;9;;;5.4;;
49582;SDS011;36329;48.816;44.624;2023-03-01T09:36:35;10.6;;;5.2;;
49582;SDS011;36329;48.816;44.624;2023-03-01T09:40:00;7.7;;;5.3;;
49582;SDS011;36329;48.816;44.624;2023-03-01T09:43:18;8.4;;;5.8;;
49582;SDS011;36329;48.816;44.624;2023-03-01T09:46:40;11.3;;;5.3;;
49582;SDS011;36329;48.816;44.624;2023-03-01T09:49:48;6.8;;;5.1;;
49582;SDS011;36329;48.816;44.624;2023-03-01T09:53:13;8.1;;;5;;
49582;SDS011;36329;48.816;44.624;2023-03-01T09:56:33;17.5;;;5.8;;
49582;SDS011;36329;48.816;44.624;2023-03-01T09:59:49;8.2;;;6;;
49582;SDS011;36329;48.816;44.624;2023-03-01T10:03:21;8.7;;;5.7;;
49582;SDS011;36329;48.816;44.624;2023-03-01T10:06:35;8.5;;;5.7;;
49582;SDS011;36329;48.816;44.624;2023-03-01T10:13:10;9.9;;;5.6;;
49582;SDS011;36329;48.816;44.624;2023-03-01T10:16:28;8.1;;;5.6;;
49582;SDS011;36329;48.816;44.624;2023-03-01T10:19:53;6.8;;;4.8;;
49582;SDS011;36329;48.816;44.624;2023-03-01T10:23:14;9.7;;;5.9;;
49582;SDS011;36329;48.816;44.624;2023-03-01T10:26:28;10.9;;;5.5;;
49582;SDS011;36329;48.816;44.624;2023-03-01T10:29:57;10.8;;;5.9;;
49582;SDS011;36329;48.816;44.624;2023-03-01T10:33:10;8.6;;;5.9;;
49582;SDS011;36329;48.816;44.624;2023-03-01T10:36:33;10.2;;;5.7;;
49582;SDS011;36329;48.816;44.624;2023-03-01T10:39:58;9.5;;;5.4;;
49582;SDS011;36329;48.816;44.624;2023-03-01T10:43:17;9.3;;;5.7;;
49582;SDS011;36329;48.816;44.624;2023-03-01T10:46:40;9.5;;;5.5;;
49582;SDS011;36329;48.816;44.624;2023-03-01T10:53:22;10.2;;;6.2;;
49582;SDS011;36329;48.816;44.624;2023-03-01T10:56:56;8.5;;;5.9;;
49582;SDS011;36329;48.816;44.624;2023-03-01T11:03:42;9.8;;;6.5;;
49582;SDS011;36329;48.816;44.624;2023-03-01T11:07:01;9.5;;;5.9;;
49582;SDS011;36329;48.816;44.624;2023-03-01T11:10:15;8.8;;;5.8;;
49582;SDS011;36329;48.816;44.624;2023-03-01T11:13:38;8.3;;;5.9;;
49582;SDS011;36329;48.816;44.624;2023-03-01T11:17:21;8.9;;;5.8;;
49582;SDS011;36329;48.816;44.624;2023-03-01T11:20:29;8.4;;;5.8;;
49582;SDS011;36329;48.816;44.624;2023-03-01T11:23:34;7.9;;;5.5;;
49582;SDS011;36329;48.816;44.624;2023-03-01T11:27:07;8.4;;;5.4;;
49582;SDS011;36329;48.816;44.624;2023-03-01T11:30:22;8.3;;;5.6;;
49582;SDS011;36329;48.816;44.624;2023-03-01T11:33:30;9.9;;;5.4;;
49582;SDS011;36329;48.816;44.624;2023-03-01T11:36:38;7.9;;;5.6;;
49582;SDS011;36329;48.816;44.624;2023-03-01T11:40:04;9.4;;;5.5;;
49582;SDS011;36329;48.816;44.624;2023-03-01T11:43:16;8.1;;;5.3;;
49582;SDS011;36329;48.816;44.624;2023-03-01T11:46:34;8.7;;;5.6;;
49582;SDS011;36329;48.816;44.624;2023-03-01T11:49:57;10;;;6;;
49582;SDS011;36329;48.816;44.624;2023-03-01T11:53:20;9.7;;;5.9;;
49582;SDS011;36329;48.816;44.624;2023-03-01T11:56:31;8.5;;;6.2;;
49582;SDS011;36329;48.816;44.624;2023-03-01T11:59:43;10.4;;;6.3;;
49582;SDS011;36329;48.816;44.624;2023-03-01T12:02:56;10.9;;;6.6;;
49582;SDS011;36329;48.816;44.624;2023-03-01T12:09:32;9.9;;;6.6;;
49582;SDS011;36329;48.816;44.624;2023-03-01T12:12:45;9;;;6.6;;
49582;SDS011;36329;48.816;44.624;2023-03-01T12:16:02;9.6;;;6.4;;
49582;SDS011;36329;48.816;44.624;2023-03-01T12:19:16;9.3;;;6.7;;
49582;SDS011;36329;48.816;44.624;2023-03-01T12:22:29;9.7;;;6.4;;
49582;SDS011;36329;48.816;44.624;2023-03-01T12:25:33;11.3;;;6.4;;
49582;SDS011;36329;48.816;44.624;2023-03-01T12:28:45;9.6;;;6.2;;
49582;SDS011;36329;48.816;44.624;2023-03-01T12:32:04;14;;;6.8;;
49582;SDS011;36329;48.816;44.624;2023-03-01T12:35:22;11.7;;;6.8;;
49582;SDS011;36329;48.816;44.624;2023-03-01T12:38:39;8.8;;;6.5;;
49582;SDS011;36329;48.816;44.624;2023-03-01T12:41:46;9.8;;;6.6;;
49582;SDS011;36329;48.816;44.624;2023-03-01T12:44:59;9.4;;;6.2;;
49582;SDS011;36329;48.816;44.624;2023-03-01T12:48:12;11.8;;;6.6;;
49582;SDS011;36329;48.816;44.624;2023-03-01T12:51:24;9.8;;;6.9;;
49582;SDS011;36329;48.816;44.624;2023-03-01T13:01:45;11.2;;;6.8;;
49582;SDS011;36329;48.816;44.624;2023-03-01T13:05:19;8.8;;;6.4;;
49582;SDS011;36329;48.816;44.624;2023-03-01T13:08:49;9.7;;;6.3;;
49582;SDS011;36329;48.816;44.624;2023-03-01T13:12:00;13.7;;;6.8;;
49582;SDS011;36329;48.816;44.624;2023-03-01T13:15:28;10.5;;;6.8;;
49582;SDS011;36329;48.816;44.624;2023-03-01T13:18:40;14.4;;;7.5;;
49582;SDS011;36329;48.816;44.624;2023-03-01T13:21:46;13.6;;;7.3;;
49582;SDS011;36329;48.816;44.624;2023-03-01T13:25:03;13.6;;;7.4;;
49582;SDS011;36329;48.816;44.624;2023-03-01T13:31:56;10.1;;;6.9;;
49582;SDS011;36329;48.816;44.624;2023-03-01T13:35:01;10.3;;;7;;
49582;SDS011;36329;48.816;44.624;2023-03-01T13:41:58;14.1;;;7.1;;
49582;SDS011;36329;48.816;44.624;2023-03-01T13:45:12;10.5;;;6.8;;
49582;SDS011;36329;48.816;44.624;2023-03-01T13:48:31;12.4;;;6.9;;
49582;SDS011;36329;48.816;44.624;2023-03-01T13:51:36;10.5;;;7.3;;
49582;SDS011;36329;48.816;44.624;2023-03-01T13:54:54;12.3;;;8;;
49582;SDS011;36329;48.816;44.624;2023-03-01T13:58:21;11.5;;;7.5;;
49582;SDS011;36329;48.816;44.624;2023-03-01T14:01:36;11.5;;;6.9;;
49582;SDS011;36329;48.816;44.624;2023-03-01T14:08:26;10.1;;;6.7;;
49582;SDS011;36329;48.816;44.624;2023-03-01T14:19:56;9.7;;;6.5;;
49582;SDS011;36329;48.816;44.624;2023-03-01T14:23:01;8.6;;;5.9;;
49582;SDS011;36329;48.816;44.624;2023-03-01T14:26:28;8.8;;;5.6;;
49582;SDS011;36329;48.816;44.624;2023-03-01T14:37:19;10.9;;;6.5;;
49582;SDS011;36329;48.816;44.624;2023-03-01T14:40:49;8.5;;;6.1;;
49582;SDS011;36329;48.816;44.624;2023-03-01T14:44:28;9.7;;;6.4;;
49582;SDS011;36329;48.816;44.624;2023-03-01T14:47:35;9.6;;;6.7;;
49582;SDS011;36329;48.816;44.624;2023-03-01T14:53:58;10.9;;;6.1;;
49582;SDS011;36329;48.816;44.624;2023-03-01T14:57:20;9;;;5.9;;
49582;SDS011;36329;48.816;44.624;2023-03-01T15:00:50;10.8;;;6.2;;
49582;SDS011;36329;48.816;44.624;2023-03-01T15:04:07;9;;;5.9;;
49582;SDS011;36329;48.816;44.624;2023-03-01T15:07:35;8.2;;;5.9;;
49582;SDS011;36329;48.816;44.624;2023-03-01T15:14:38;10.1;;;6.1;;
49582;SDS011;36329;48.816;44.624;2023-03-01T15:17:57;7.9;;;5.8;;
49582;SDS011;36329;48.816;44.624;2023-03-01T15:21:09;10;;;6;;
49582;SDS011;36329;48.816;44.624;2023-03-01T15:24:39;8.8;;;6.1;;
49582;SDS011;36329;48.816;44.624;2023-03-01T15:28:16;9.1;;;6.1;;
49582;SDS011;36329;48.816;44.624;2023-03-01T15:31:25;6.9;;;5.4;;
49582;SDS011;36329;48.816;44.624;2023-03-01T15:34:43;9.4;;;6.1;;
49582;SDS011;36329;48.816;44.624;2023-03-01T15:41:57;8.8;;;6.3;;
49582;SDS011;36329;48.816;44.624;2023-03-01T15:48:50;10.6;;;6.2;;
49582;SDS011;36329;48.816;44.624;2023-03-01T15:52:35;10.8;;;7.4;;
49582;SDS011;36329;48.816;44.624;2023-03-01T15:56:03;12.3;;;7.6;;
49582;SDS011;36329;48.816;44.624;2023-03-01T15:59:29;12.8;;;6.9;;
49582;SDS011;36329;48.816;44.624;2023-03-01T16:06:18;10.1;;;6;;
49582;SDS011;36329;48.816;44.624;2023-03-01T16:09:31;9.9;;;6.5;;
49582;SDS011;36329;48.816;44.624;2023-03-01T16:13:00;9.5;;;6.1;;
49582;SDS011;36329;48.816;44.624;2023-03-01T16:16:26;8.6;;;6.2;;
49582;SDS011;36329;48.816;44.624;2023-03-01T16:19:35;8.8;;;6.4;;
49582;SDS011;36329;48.816;44.624;2023-03-01T16:22:44;9.2;;;6.3;;
49582;SDS011;36329;48.816;44.624;2023-03-01T16:25:59;8;;;6;;
49582;SDS011;36329;48.816;44.624;2023-03-01T16:29:29;8.7;;;5.8;;
49582;SDS011;36329;48.816;44.624;2023-03-01T16:32:40;9.4;;;6.1;;
49582;SDS011;36329;48.816;44.624;2023-03-01T16:36:07;10.4;;;5;;
49582;SDS011;36329;48.816;44.624;2023-03-01T16:39:24;6.7;;;3.2;;
49582;SDS011;36329;48.816;44.624;2023-03-01T16:46:44;6.4;;;2.7;;
49582;SDS011;36329;48.816;44.624;2023-03-01T16:49:55;3.2;;;2.1;;
49582;SDS011;36329;48.816;44.624;2023-03-01T16:53:16;3.1;;;1.5;;
49582;SDS011;36329;48.816;44.624;2023-03-01T17:04:13;2.6;;;1.6;;
49582;SDS011;36329;48.816;44.624;2023-03-01T17:07:57;3.5;;;2;;
49582;SDS011;36329;48.816;44.624;2023-03-01T17:15:03;3.6;;;1.8;;
49582;SDS011;36329;48.816;44.624;2023-03-01T17:18:34;5.3;;;1.7;;
49582;SDS011;36329;48.816;44.624;2023-03-01T17:22:18;3.8;;;1.7;;
49582;SDS011;36329;48.816;44.624;2023-03-01T17:25:56;1.8;;;1.1;;
49582;SDS011;36329;48.816;44.624;2023-03-01T17:29:29;2.2;;;1.4;;
49582;SDS011;36329;48.816;44.624;2023-03-01T17:36:32;2.9;;;1;;
49582;SDS011;36329;48.816;44.624;2023-03-01T17:39:37;4.5;;;1.6;;
49582;SDS011;36329;48.816;44.624;2023-03-01T17:42:53;2;;;1.3;;
49582;SDS011;36329;48.816;44.624;2023-03-01T17:46:17;2.9;;;1.2;;
49582;SDS011;36329;48.816;44.624;2023-03-01T17:49:31;2.5;;;1.5;;
49582;SDS011;36329;48.816;44.624;2023-03-01T17:52:53;3;;;1.3;;
49582;SDS011;36329;48.816;44.624;2023-03-01T17:56:14;3.3;;;1.6;;
49582;SDS011;36329;48.816;44.624;2023-03-01T17:59:19;2.9;;;1.6;;
49582;SDS011;36329;48.816;44.624;2023-03-01T18:06:02;3.4;;;1.4;;
49582;SDS011;36329;48.816;44.624;2023-03-01T18:09:44;3;;;1.8;;
49582;SDS011;36329;48.816;44.624;2023-03-01T18:16:26;5.4;;;1.7;;
49582;SDS011;36329;48.816;44.624;2023-03-01T18:19:32;5;;;2;;
49582;SDS011;36329;48.816;44.624;2023-03-01T18:22:55;8.7;;;2.2;;
49582;SDS011;36329;48.816;44.624;2023-03-01T18:26:14;6.7;;;2.7;;
49582;SDS011;36329;48.816;44.624;2023-03-01T18:29:25;8.9;;;3.2;;
49582;SDS011;36329;48.816;44.624;2023-03-01T18:32:48;8.6;;;3.1;;
49582;SDS011;36329;48.816;44.624;2023-03-01T18:39:55;8.9;;;3.4;;
49582;SDS011;36329;48.816;44.624;2023-03-01T18:43:28;8.2;;;2.7;;
49582;SDS011;36329;48.816;44.624;2023-03-01T18:51:07;6.6;;;2.9;;
49582;SDS011;36329;48.816;44.624;2023-03-01T18:54:46;11.2;;;3.3;;
49582;SDS011;36329;48.816;44.624;2023-03-01T18:58:23;10.5;;;3.3;;
49582;SDS011;36329;48.816;44.624;2023-03-01T19:02:03;9.2;;;3.3;;
49582;SDS011;36329;48.816;44.624;2023-03-01T19:05:29;7.6;;;3.5;;
49582;SDS011;36329;48.816;44.624;2023-03-01T19:09:09;8.4;;;3.1;;
49582;SDS011;36329;48.816;44.624;2023-03-01T19:12:26;7.2;;;2.6;;
49582;SDS011;36329;48.816;44.624;2023-03-01T19:15:48;7;;;2.6;;
49582;SDS011;36329;48.816;44.624;2023-03-01T19:19:16;7;;;2.5;;
49582;SDS011;36329;48.816;44.624;2023-03-01T19:23:09;7;;;2.8;;
49582;SDS011;36329;48.816;44.624;2023-03-01T19:26:42;11.5;;;3.6;;
49582;SDS011;36329;48.816;44.624;2023-03-01T19:30:24;8.7;;;3;;
49582;SDS011;36329;48.816;44.624;2023-03-01T19:33:44;9;;;2.9;;
49582;SDS011;36329;48.816;44.624;2023-03-01T19:40:21;8.8;;;3;;
49582;SDS011;36329;48.816;44.624;2023-03-01T19:47:16;7.9;;;3;;
49582;SDS011;36329;48.816;44.624;2023-03-01T19:50:50;6.6;;;3.1;;
49582;SDS011;36329;48.816;44.624;2023-03-01T19:54:06;6;;;2.9;;
49582;SDS011;36329;48.816;44.624;2023-03-01T19:57:17;8.5;;;3.1;;
49582;SDS011;36329;48.816;44.624;2023-03-01T20:00:27;6.3;;;3;;
49582;SDS011;36329;48.816;44.624;2023-03-01T20:03:37;7.5;;;2.7;;
49582;SDS011;36329;48.816;44.624;2023-03-01T20:07:00;6.2;;;2.7;;
49582;SDS011;36329;48.816;44.624;2023-03-01T20:10:11;8.5;;;3.1;;
49582;SDS011;36329;48.816;44.624;2023-03-01T20:13:22;6.8;;;2.8;;
49582;SDS011;36329;48.816;44.624;2023-03-01T20:16:38;4.3;;;2.3;;
49582;SDS011;36329;48.816;44.624;2023-03-01T20:19:46;5.1;;;2.5;;
49582;SDS011;36329;48.816;44.624;2023-03-01T20:23:01;4.7;;;2.4;;
49582;SDS011;36329;48.816;44.624;2023-03-01T20:26:16;5.3;;;2.5;;
49582;SDS011;36329;48.816;44.624;2023-03-01T20:33:00;6.8;;;2.6;;
49582;SDS011;36329;48.816;44.624;2023-03-01T20:36:15;4.1;;;2.2;;
49582;SDS011;36329;48.816;44.624;2023-03-01T20:39:32;5.5;;;2.1;;
49582;SDS011;36329;48.816;44.624;2023-03-01T20:43:01;5.6;;;2.4;;
49582;SDS011;36329;48.816;44.624;2023-03-01T20:46:12;5.6;;;2.6;;
49582;SDS011;36329;48.816;44.624;2023-03-01T20:49:35;5.8;;;2.4;;
49582;SDS011;36329;48.816;44.624;2023-03-01T20:53:06;6.4;;;2.6;;
49582;SDS011;36329;48.816;44.624;2023-03-01T20:56:23;9.1;;;3;;
49582;SDS011;36329;48.816;44.624;2023-03-01T21:03:26;6.5;;;2.9;;
49582;SDS011;36329;48.816;44.624;2023-03-01T21:06:31;7.1;;;2.4;;
49582;SDS011;36329;48.816;44.624;2023-03-01T21:10:05;4;;;2;;
49582;SDS011;36329;48.816;44.624;2023-03-01T21:13:20;2.8;;;1.8;;
49582;SDS011;36329;48.816;44.624;2023-03-01T21:16:39;3.9;;;1.8;;
49582;SDS011;36329;48.816;44.624;2023-03-01T21:20:00;3.4;;;1.6;;
49582;SDS011;36329;48.816;44.624;2023-03-01T21:23:03;3.7;;;1.8;;
49582;SDS011;36329;48.816;44.624;2023-03-01T21:26:29;3.6;;;1.9;;
49582;SDS011;36329;48.816;44.624;2023-03-01T21:29:43;2.6;;;1.6;;
49582;SDS011;36329;48.816;44.624;2023-03-01T21:33:12;4;;;1.9;;
49582;SDS011;36329;48.816;44.624;2023-03-01T21:36:22;3.1;;;1.7;;
49582;SDS011;36329;48.816;44.624;2023-03-01T21:42:48;3.1;;;1.7;;
49582;SDS011;36329;48.816;44.624;2023-03-01T21:46:34;3.2;;;1.7;;